Time;durP1;ratioP1;P1;durP2;ratioP2;P2;SDS_P1;SDS_P2;PMS_P1;PMS_P2;Temp;Humidity;BMP_temperature;BMP_pressure;BME280_temperature;BME280_humidity;BME280_pressure;Samples;Min_cycle;Max_cycle;Signal;HPM_P1;HPM_P2
2021/04/11 00:00:23;;;;;;;9.68;8.48;;;2.60;99.90;;;;;;4178676;28;20472;-78
2021/04/11 00:02:24;;;;;;;9.27;7.72;;;2.70;99.90;;;;;;4195686;28;20048;-78
2021/04/11 00:04:25;;;;;;;11.65;8.60;;;2.70;99.90;;;;;;4178995;28;20099;-78
2021/04/11 00:06:26;;;;;;;10.20;8.90;;;2.70;99.90;;;;;;4178674;28;20021;-77
2021/04/11 00:08:26;;;;;;;10.02;8.18;;;2.60;99.90;;;;;;4195398;28;20017;-78
2021/04/11 00:10:33;;;;;;;11.15;9.05;;;2.60;99.90;;;;;;4178972;28;20051;-78
2021/04/11 00:12:33;;;;;;;9.68;8.05;;;2.60;99.90;;;;;;4195194;28;20107;-78
2021/04/11 00:14:34;;;;;;;12.95;8.95;;;2.60;99.90;;;;;;4195237;28;20036;-78
2021/04/11 00:16:35;;;;;;;11.73;8.88;;;2.60;99.90;;;;;;4195940;28;20024;-78
2021/04/11 00:18:36;;;;;;;9.65;7.85;;;2.50;99.90;;;;;;4180033;28;20036;-78
2021/04/11 00:20:37;;;;;;;12.13;9.70;;;2.50;99.90;;;;;;4180455;28;20029;-78
2021/04/11 00:22:39;;;;;;;9.43;8.43;;;2.50;99.90;;;;;;4180105;28;20366;-78
2021/04/11 00:24:40;;;;;;;11.32;8.15;;;2.50;99.90;;;;;;4184991;28;20418;-78
2021/04/11 00:26:41;;;;;;;11.20;8.48;;;2.40;99.90;;;;;;4197048;28;20044;-79
2021/04/11 00:28:42;;;;;;;14.40;9.57;;;2.40;99.90;;;;;;4196996;28;20101;-78
2021/04/11 00:30:44;;;;;;;14.48;9.73;;;2.40;99.90;;;;;;4195650;28;20064;-78
2021/04/11 00:32:49;;;;;;;9.68;7.47;;;2.40;99.90;;;;;;4180081;28;20033;-78
2021/04/11 00:34:50;;;;;;;12.93;9.90;;;2.40;99.90;;;;;;4196617;28;20062;-79
2021/04/11 00:36:51;;;;;;;15.13;9.70;;;2.40;99.90;;;;;;4180136;28;20432;-78
2021/04/11 00:38:52;;;;;;;11.25;9.02;;;2.40;99.90;;;;;;4179847;28;20029;-78
2021/04/11 00:40:57;;;;;;;13.18;10.30;;;2.40;99.90;;;;;;4179525;28;20041;-78
2021/04/11 00:43:06;;;;;;;13.52;10.00;;;2.40;99.90;;;;;;4196178;28;20037;-79
2021/04/11 00:45:29;;;;;;;14.25;9.88;;;2.40;99.90;;;;;;4179356;28;20475;-79
2021/04/11 00:47:30;;;;;;;13.85;9.60;;;2.50;99.90;;;;;;4196631;28;20249;-78
2021/04/11 00:49:40;;;;;;;12.48;9.90;;;2.50;99.90;;;;;;4179863;28;20055;-78
2021/04/11 00:51:41;;;;;;;16.38;11.10;;;2.50;99.90;;;;;;4176557;28;20036;-78
2021/04/11 00:53:43;;;;;;;13.40;9.43;;;2.50;99.90;;;;;;4195912;28;20036;-78
2021/04/11 00:55:44;;;;;;;15.13;10.33;;;2.50;99.90;;;;;;4195910;28;20508;-79
2021/04/11 00:57:46;;;;;;;14.15;9.93;;;2.50;99.90;;;;;;4196461;28;20271;-78
2021/04/11 00:59:46;;;;;;;15.35;10.07;;;2.50;99.90;;;;;;4194872;28;20507;-78
2021/04/11 01:01:48;;;;;;;14.90;10.48;;;2.50;99.90;;;;;;4213194;28;20021;-78
2021/04/11 01:03:49;;;;;;;14.98;11.30;;;2.50;99.90;;;;;;4196360;28;20024;-79
2021/04/11 01:05:51;;;;;;;17.10;10.98;;;2.50;99.90;;;;;;4179331;28;20047;-79
2021/04/11 01:07:52;;;;;;;19.00;11.95;;;2.50;99.90;;;;;;4196245;28;20079;-79
2021/04/11 01:09:54;;;;;;;18.02;12.32;;;2.50;99.90;;;;;;4179742;28;20480;-78
2021/04/11 01:11:59;;;;;;;16.08;11.60;;;2.50;99.90;;;;;;4185258;28;20107;-78
2021/04/11 01:14:05;;;;;;;17.85;10.55;;;2.50;99.90;;;;;;4179440;28;20136;-79
2021/04/11 01:16:06;;;;;;;14.50;11.65;;;2.50;99.90;;;;;;4195650;28;20052;-79
2021/04/11 01:18:08;;;;;;;16.10;11.73;;;2.50;99.90;;;;;;4196807;28;20052;-79
2021/04/11 01:20:10;;;;;;;15.77;10.32;;;2.50;99.90;;;;;;4179203;28;20091;-78
2021/04/11 01:22:39;;;;;;;12.95;9.38;;;2.50;99.90;;;;;;4195905;28;20067;-78
2021/04/11 01:24:59;;;;;;;15.30;10.15;;;2.60;99.90;;;;;;4192996;28;20032;-79
2021/04/11 01:27:01;;;;;;;17.95;10.93;;;2.60;99.90;;;;;;4179169;28;20025;-79
2021/04/11 01:29:02;;;;;;;16.13;11.05;;;2.60;99.90;;;;;;4178871;28;20093;-80
2021/04/11 01:31:07;;;;;;;17.13;10.90;;;2.60;99.90;;;;;;4212511;28;20025;-79
2021/04/11 01:33:14;;;;;;;16.35;10.70;;;2.60;99.90;;;;;;4195369;28;20111;-79
2021/04/11 01:35:18;;;;;;;13.05;9.70;;;2.70;99.90;;;;;;4193803;28;20020;-80
2021/04/11 01:37:21;;;;;;;17.27;10.05;;;2.70;99.90;;;;;;4179072;28;20396;-79
2021/04/11 01:39:26;;;;;;;17.20;10.35;;;2.70;99.90;;;;;;4195168;28;20876;-79
2021/04/11 01:41:37;;;;;;;13.00;9.50;;;2.70;99.90;;;;;;4195489;28;20032;-79
2021/04/11 01:43:38;;;;;;;17.50;8.82;;;2.70;99.90;;;;;;4176704;28;20056;-79
2021/04/11 01:45:43;;;;;;;11.05;8.13;;;2.70;99.90;;;;;;4178815;28;20044;-79
2021/04/11 01:47:43;;;;;;;11.60;7.78;;;2.80;99.90;;;;;;4179148;28;20060;-78
2021/04/11 01:49:45;;;;;;;12.13;8.30;;;2.80;99.90;;;;;;4179100;28;20041;-78
2021/04/11 01:52:12;;;;;;;9.90;6.88;;;2.70;99.90;;;;;;4195391;28;20029;-79
2021/04/11 01:54:21;;;;;;;12.40;7.47;;;2.70;99.90;;;;;;4195558;28;20124;-78
2021/04/11 01:56:22;;;;;;;9.48;6.68;;;2.80;99.90;;;;;;4178862;28;20048;-78
2021/04/11 01:58:26;;;;;;;8.38;6.30;;;2.80;99.90;;;;;;4178914;28;20463;-78
2021/04/11 02:00:36;;;;;;;8.15;6.05;;;2.80;99.90;;;;;;4175117;28;20039;-79
2021/04/11 02:02:37;;;;;;;7.95;5.85;;;2.80;99.90;;;;;;4211193;28;20454;-79
2021/04/11 02:04:37;;;;;;;7.22;4.80;;;2.80;99.90;;;;;;4183168;28;20052;-79
2021/04/11 02:06:45;;;;;;;8.25;4.95;;;2.80;99.90;;;;;;4195006;28;20032;-79
2021/04/11 02:08:52;;;;;;;5.85;4.20;;;2.80;99.90;;;;;;4178670;28;20029;-78
2021/04/11 02:10:55;;;;;;;5.70;4.65;;;2.80;99.90;;;;;;4195168;28;20062;-78
2021/04/11 02:12:56;;;;;;;5.75;4.72;;;2.80;99.90;;;;;;4192387;28;20063;-79
2021/04/11 02:14:57;;;;;;;6.22;4.95;;;2.80;99.90;;;;;;4183295;28;20040;-79
2021/04/11 02:16:58;;;;;;;5.80;4.70;;;2.80;99.90;;;;;;4194911;28;20033;-79
2021/04/11 02:19:19;;;;;;;6.13;4.65;;;2.80;99.90;;;;;;4194711;28;20476;-79
2021/04/11 02:21:20;;;;;;;5.82;4.45;;;2.80;99.90;;;;;;4177639;28;20120;-78
2021/04/11 02:23:23;;;;;;;5.15;4.03;;;2.80;99.90;;;;;;4194991;28;20044;-79
2021/04/11 02:25:33;;;;;;;4.68;3.88;;;2.80;99.90;;;;;;4178030;28;20045;-79
2021/04/11 02:27:35;;;;;;;4.80;4.13;;;2.90;99.90;;;;;;4211891;28;20039;-79
2021/04/11 02:29:36;;;;;;;6.80;4.10;;;2.90;99.90;;;;;;4193309;28;20063;-79
2021/04/11 02:31:37;;;;;;;4.18;3.72;;;2.90;99.90;;;;;;4193696;28;20062;-79
2021/04/11 02:33:38;;;;;;;6.28;3.75;;;2.90;99.90;;;;;;4194654;28;20105;-79
2021/04/11 02:35:39;;;;;;;4.78;4.10;;;2.90;99.90;;;;;;4194779;28;20024;-79
2021/04/11 02:37:43;;;;;;;5.03;4.20;;;2.80;99.90;;;;;;4194835;28;20071;-79
2021/04/11 02:39:45;;;;;;;4.70;4.15;;;2.80;99.90;;;;;;4194387;28;20048;-79
2021/04/11 02:41:47;;;;;;;6.57;4.40;;;2.80;99.90;;;;;;4177569;28;20126;-79
2021/04/11 02:43:48;;;;;;;8.48;4.80;;;2.80;99.90;;;;;;4194535;28;20039;-79
2021/04/11 02:45:48;;;;;;;6.15;4.43;;;2.80;99.90;;;;;;4194417;28;20036;-80
2021/04/11 02:47:53;;;;;;;5.47;4.35;;;2.90;99.90;;;;;;4194048;28;20048;-79
2021/04/11 02:49:53;;;;;;;5.70;4.18;;;2.90;99.90;;;;;;4195581;28;20033;-79
2021/04/11 02:51:55;;;;;;;9.13;4.45;;;2.90;99.90;;;;;;4194386;28;20059;-79
2021/04/11 02:54:00;;;;;;;6.60;4.30;;;2.90;99.90;;;;;;4194647;28;20036;-79
2021/04/11 02:56:02;;;;;;;6.50;4.65;;;2.80;99.90;;;;;;4176107;28;20032;-81
2021/04/11 02:58:03;;;;;;;7.25;4.50;;;2.90;99.90;;;;;;4193108;28;20028;-80
2021/04/11 03:00:13;;;;;;;6.60;4.38;;;2.90;99.90;;;;;;4187674;28;20396;-79
2021/04/11 03:02:15;;;;;;;4.80;4.30;;;2.90;99.90;;;;;;4201335;28;20036;-80
2021/04/11 03:04:21;;;;;;;4.82;4.20;;;2.90;99.90;;;;;;4194026;28;20017;-79
2021/04/11 03:06:25;;;;;;;4.47;4.03;;;2.90;99.90;;;;;;4176520;28;20036;-80
2021/04/11 03:08:34;;;;;;;3.90;3.40;;;2.90;99.90;;;;;;4176850;28;20029;-80
2021/04/11 03:11:07;;;;;;;4.32;3.42;;;2.90;99.90;;;;;;4193110;28;20025;-79
2021/04/11 03:13:10;;;;;;;4.28;3.50;;;3.00;99.90;;;;;;4190966;28;20036;-80
2021/04/11 03:15:12;;;;;;;3.92;3.60;;;3.00;99.90;;;;;;4192597;28;20119;-79
2021/04/11 03:17:20;;;;;;;3.95;3.53;;;3.00;99.90;;;;;;4173788;28;20112;-79
2021/04/11 03:19:28;;;;;;;4.82;3.78;;;3.00;99.90;;;;;;4175366;28;20041;-79
2021/04/11 03:21:29;;;;;;;6.63;4.18;;;3.00;99.90;;;;;;4192936;28;20060;-79
2021/04/11 03:23:31;;;;;;;4.78;3.50;;;3.00;99.90;;;;;;4192388;28;20101;-80
2021/04/11 03:25:36;;;;;;;3.80;3.17;;;3.00;99.90;;;;;;4192847;28;20160;-79
2021/04/11 03:28:04;;;;;;;3.88;3.40;;;3.00;99.90;;;;;;4172760;28;20102;-80
2021/04/11 03:30:25;;;;;;;7.10;4.22;;;3.00;99.90;;;;;;4171278;28;20044;-79
2021/04/11 03:32:38;;;;;;;4.10;3.42;;;3.00;99.90;;;;;;4174465;28;20069;-79
2021/04/11 03:34:42;;;;;;;4.47;3.92;;;3.00;99.90;;;;;;4164460;28;20053;-79
2021/04/11 03:36:44;;;;;;;4.25;3.80;;;3.00;99.90;;;;;;4182904;28;20110;-80
2021/04/11 03:38:47;;;;;;;6.35;4.28;;;3.10;99.90;;;;;;4190969;28;20115;-79
2021/04/11 03:40:52;;;;;;;5.75;4.18;;;3.00;99.90;;;;;;4192884;28;20036;-80
2021/04/11 03:43:11;;;;;;;6.97;3.95;;;3.00;99.90;;;;;;4176520;28;20443;-80
2021/04/11 03:45:15;;;;;;;4.22;3.83;;;3.00;99.90;;;;;;4176280;28;20124;-80
2021/04/11 03:47:27;;;;;;;;;;;3.00;99.90;;;;;;4177493;28;20056;-80
2021/04/11 03:50:01;;;;;;;5.13;3.90;;;3.00;99.90;;;;;;4204798;28;19981;-80
2021/04/11 03:52:15;;;;;;;9.50;4.18;;;3.10;99.90;;;;;;4192566;28;20063;-79
2021/04/11 03:54:33;;;;;;;5.00;4.50;;;3.10;99.90;;;;;;4193213;28;20025;-80
2021/04/11 03:56:48;;;;;;;7.00;4.35;;;3.10;99.90;;;;;;4193700;28;20142;-79
2021/04/11 03:58:56;;;;;;;6.90;4.80;;;3.10;99.90;;;;;;4193076;28;20037;-80
2021/04/11 04:01:04;;;;;;;6.05;4.88;;;3.20;99.90;;;;;;4209847;28;20572;-79
2021/04/11 04:03:12;;;;;;;7.47;5.10;;;3.20;99.90;;;;;;4187077;28;20120;-79
2021/04/11 04:05:24;;;;;;;9.55;5.25;;;3.20;99.90;;;;;;4172779;28;20048;-79
2021/04/11 04:07:25;;;;;;;6.25;5.25;;;3.20;99.90;;;;;;4188948;28;20029;-79
2021/04/11 04:09:27;;;;;;;9.40;5.55;;;3.20;99.90;;;;;;4192729;28;20089;-79
2021/04/11 04:11:57;;;;;;;7.50;5.78;;;3.20;99.90;;;;;;4193235;28;20029;-78
2021/04/11 04:14:10;;;;;;;7.25;5.28;;;3.20;99.90;;;;;;4195004;28;20112;-79
2021/04/11 04:16:38;;;;;;;7.60;5.05;;;3.20;99.90;;;;;;4192580;28;20383;-79
2021/04/11 04:19:25;;;;;;;7.05;5.13;;;3.30;99.90;;;;;;4176566;28;20029;-79
2021/04/11 04:21:53;;;;;;;7.10;4.72;;;3.30;99.90;;;;;;4158846;28;20855;-79
2021/04/11 04:24:35;;;;;;;8.82;5.43;;;3.30;99.90;;;;;;4168865;28;20030;-79
2021/04/11 04:26:42;;;;;;;6.55;5.32;;;3.40;99.90;;;;;;4192970;28;20147;-79
2021/04/11 04:28:56;;;;;;;7.20;5.55;;;3.30;99.90;;;;;;4195313;28;20515;-80
2021/04/11 04:31:03;;;;;;;5.40;4.53;;;3.30;99.90;;;;;;4196220;28;20107;-79
2021/04/11 04:33:30;;;;;;;10.50;5.13;;;3.30;99.90;;;;;;4174833;28;20057;-79
2021/04/11 04:36:08;;;;;;;7.90;4.85;;;3.30;99.90;;;;;;4188986;28;20032;-79
2021/04/11 04:38:26;;;;;;;6.80;4.13;;;3.40;99.90;;;;;;4195419;28;20033;-79
2021/04/11 04:41:03;;;;;;;5.28;4.20;;;3.40;99.90;;;;;;4195597;28;20047;-79
2021/04/11 04:43:20;;;;;;;5.20;4.70;;;3.40;99.90;;;;;;4212226;28;20514;-79
2021/04/11 04:46:13;;;;;;;5.18;4.68;;;3.40;99.90;;;;;;4195538;28;20123;-79
2021/04/11 04:48:43;;;;;;;4.35;3.95;;;3.30;99.90;;;;;;4167924;28;20036;-79
2021/04/11 04:51:04;;;;;;;5.03;3.78;;;3.30;99.90;;;;;;4168259;28;20051;-79
2021/04/11 04:53:10;;;;;;;4.72;4.32;;;3.30;99.90;;;;;;4178600;28;20033;-80
2021/04/11 04:55:34;;;;;;;7.32;4.57;;;3.20;99.90;;;;;;4195548;28;20570;-79
2021/04/11 04:57:43;;;;;;;;;;;3.20;99.90;;;;;;4196529;28;20025;-79
2021/04/11 04:59:59;;;;;;;6.65;4.05;;;3.20;99.90;;;;;;4179487;28;19952;-79
2021/04/11 05:02:10;;;;;;;4.13;3.60;;;3.20;99.90;;;;;;4212541;28;20048;-79
2021/04/11 05:04:45;;;;;;;9.07;4.03;;;3.30;99.90;;;;;;4178604;28;20483;-79
2021/04/11 05:06:55;;;;;;;6.57;4.07;;;3.30;99.90;;;;;;4187685;28;20068;-79
2021/04/11 05:09:19;;;;;;;4.40;4.00;;;3.20;99.90;;;;;;4195424;28;20466;-79
2021/04/11 05:11:28;;;;;;;;;;;3.30;99.90;;;;;;4195863;28;20041;-79
2021/04/11 05:13:36;;;;;;;6.75;4.28;;;3.20;99.90;;;;;;4212163;28;19915;-79
2021/04/11 05:15:45;;;;;;;4.63;3.90;;;3.20;99.90;;;;;;4178786;28;20496;-80
2021/04/11 05:17:58;;;;;;;4.25;3.70;;;3.30;99.90;;;;;;4195435;28;20107;-79
2021/04/11 05:20:06;;;;;;;5.00;4.00;;;3.30;99.90;;;;;;4166487;28;20045;-80
2021/04/11 05:22:45;;;;;;;5.13;4.13;;;3.30;99.90;;;;;;4202248;28;20076;-80
2021/04/11 05:24:52;;;;;;;6.25;4.40;;;3.30;99.90;;;;;;4190910;28;20101;-79
2021/04/11 05:27:04;;;;;;;4.85;4.22;;;3.30;99.90;;;;;;4179132;28;20034;-80
2021/04/11 05:29:32;;;;;;;4.72;4.25;;;3.40;99.90;;;;;;4212214;28;20028;-80
2021/04/11 05:31:38;;;;;;;6.38;4.10;;;3.40;99.90;;;;;;4194157;28;20400;-80
2021/04/11 05:33:40;;;;;;;7.63;4.50;;;3.40;99.90;;;;;;4179043;28;20071;-79
2021/04/11 05:35:41;;;;;;;5.75;4.30;;;3.40;99.90;;;;;;4194687;28;20115;-78
2021/04/11 05:38:18;;;;;;;5.20;4.25;;;3.40;99.90;;;;;;4189128;28;20053;-79
2021/04/11 05:40:57;;;;;;;4.10;3.70;;;3.50;99.90;;;;;;4193190;28;20036;-79
2021/04/11 05:43:13;;;;;;;6.38;4.00;;;3.60;99.90;;;;;;4188682;28;20040;-79
2021/04/11 05:45:48;;;;;;;8.20;3.95;;;3.60;99.90;;;;;;4177927;28;20025;-80
2021/04/11 05:48:29;;;;;;;5.43;3.80;;;3.60;99.90;;;;;;4194843;28;20143;-79
2021/04/11 05:50:51;;;;;;;4.68;4.20;;;3.70;99.90;;;;;;4181658;28;20037;-79
2021/04/11 05:53:14;;;;;;;8.10;4.22;;;3.70;99.90;;;;;;4178377;28;20392;-80
2021/04/11 05:55:17;;;;;;;7.10;3.83;;;3.70;99.90;;;;;;4194549;28;20094;-80
2021/04/11 05:57:32;;;;;;;6.57;4.15;;;3.70;99.90;;;;;;4198672;28;20024;-80
2021/04/11 06:00:00;;;;;;;4.22;3.90;;;3.70;99.90;;;;;;4194645;28;20424;-80
2021/04/11 06:02:03;;;;;;;5.10;3.72;;;3.70;99.90;;;;;;4160825;28;20057;-80
2021/04/11 06:04:11;;;;;;;5.65;4.13;;;3.70;99.90;;;;;;4177294;28;20047;-80
2021/04/11 06:06:22;;;;;;;6.32;3.63;;;3.70;99.90;;;;;;4178374;28;20032;-80
2021/04/11 06:08:33;;;;;;;4.93;3.55;;;3.80;99.90;;;;;;4194682;28;20079;-80
2021/04/11 06:11:05;;;;;;;4.28;3.45;;;3.80;99.90;;;;;;4177349;28;20029;-80
2021/04/11 06:13:23;;;;;;;8.10;4.00;;;3.90;99.90;;;;;;4192531;28;20020;-81
2021/04/11 06:15:34;;;;;;;4.18;3.75;;;4.00;99.90;;;;;;4194823;28;20476;-80
2021/04/11 06:17:36;;;;;;;5.50;4.07;;;4.00;99.90;;;;;;4193865;28;20384;-80
2021/04/11 06:19:38;;;;;;;5.32;3.30;;;4.10;99.90;;;;;;4194446;28;20429;-81
2021/04/11 06:22:02;;;;;;;5.32;3.97;;;4.10;99.90;;;;;;4194269;28;20036;-81
2021/04/11 06:24:40;;;;;;;5.18;3.30;;;4.20;99.90;;;;;;4177045;28;20470;-81
2021/04/11 06:26:50;;;;;;;6.93;3.88;;;4.30;99.90;;;;;;4193359;28;20041;-81
2021/04/11 06:28:54;;;;;;;4.88;3.42;;;4.30;99.90;;;;;;4194362;28;20040;-81
2021/04/11 06:31:03;;;;;;;4.80;4.28;;;4.30;99.90;;;;;;4193803;28;20071;-80
2021/04/11 06:33:21;;;;;;;4.10;3.55;;;4.30;99.90;;;;;;4192559;28;20039;-81
2021/04/11 06:35:33;;;;;;;4.88;4.30;;;4.30;99.90;;;;;;4176448;28;20237;-80
2021/04/11 06:37:36;;;;;;;4.53;3.90;;;4.20;99.90;;;;;;4165649;28;20487;-80
2021/04/11 06:39:44;;;;;;;9.00;4.05;;;4.20;99.90;;;;;;4187137;28;20037;-80
2021/04/11 06:42:31;;;;;;;6.45;4.38;;;4.10;99.90;;;;;;4177156;28;20112;-80
2021/04/11 06:45:07;;;;;;;6.55;4.45;;;4.00;99.90;;;;;;4192767;28;20367;-81
2021/04/11 06:48:01;;;;;;;6.70;4.32;;;4.00;99.90;;;;;;4174149;28;20029;-80
2021/04/11 06:50:56;;;;;;;6.43;4.70;;;4.10;99.90;;;;;;4195711;28;20541;-80
2021/04/11 06:53:27;;;;;;;5.47;3.95;;;4.10;99.90;;;;;;4192033;28;20132;-79
2021/04/11 06:55:58;;;;;;;6.43;4.68;;;4.10;99.90;;;;;;4194576;28;20102;-80
2021/04/11 06:58:24;;;;;;;11.05;6.47;;;4.20;99.90;;;;;;4184128;28;20033;-82
2021/04/11 07:01:05;;;;;;;6.63;4.30;;;4.20;99.90;;;;;;4190506;28;20143;-82
2021/04/11 07:03:34;;;;;;;4.47;3.90;;;4.30;99.90;;;;;;4191075;28;20437;-81
2021/04/11 07:06:00;;;;;;;5.50;3.80;;;4.40;99.90;;;;;;4176041;28;20083;-81
2021/04/11 07:08:25;;;;;;;9.57;3.92;;;4.30;99.90;;;;;;4175978;28;20120;-81
2021/04/11 07:10:58;;;;;;;7.45;3.58;;;4.40;99.90;;;;;;4194844;28;20483;-80
2021/04/11 07:13:28;;;;;;;4.68;3.60;;;4.40;99.90;;;;;;4160895;28;20539;-81
2021/04/11 07:16:09;;;;;;;5.30;3.80;;;4.40;99.90;;;;;;4190864;28;20036;-80
2021/04/11 07:18:23;;;;;;;5.82;3.80;;;4.30;99.90;;;;;;4196715;28;20036;-81
2021/04/11 07:21:17;;;;;;;5.22;3.63;;;4.30;99.90;;;;;;4194577;28;20511;-80
2021/04/11 07:24:18;;;;;;;4.90;3.47;;;4.30;99.90;;;;;;4162010;28;20049;-81
2021/04/11 07:26:33;;;;;;;5.25;3.22;;;4.20;99.90;;;;;;4177793;28;20128;-80
2021/04/11 07:29:00;;;;;;;4.22;3.63;;;4.20;99.90;;;;;;4192885;28;20115;-80
2021/04/11 07:31:11;;;;;;;4.60;3.78;;;4.20;99.90;;;;;;4183329;28;20044;-80
2021/04/11 07:34:10;;;;;;;3.72;3.13;;;4.20;99.90;;;;;;4209065;28;20036;-79
2021/04/11 07:36:42;;;;;;;7.20;3.35;;;4.10;99.90;;;;;;4204935;28;20077;-80
2021/04/11 07:39:19;;;;;;;7.85;3.30;;;4.20;99.90;;;;;;4191482;28;20029;-80
2021/04/11 07:41:45;;;;;;;3.22;2.47;;;4.30;99.90;;;;;;4205094;28;20054;-80
2021/04/11 07:44:36;;;;;;;4.20;3.53;;;4.40;99.90;;;;;;4206009;28;20935;-80
2021/04/11 07:47:21;;;;;;;5.75;2.92;;;4.40;99.90;;;;;;4179135;28;20391;-79
2021/04/11 07:50:07;;;;;;;7.03;3.38;;;4.40;99.90;;;;;;4202014;28;20055;-79
2021/04/11 07:52:56;;;;;;;5.88;3.03;;;4.50;99.90;;;;;;4204915;28;20028;-79
2021/04/11 07:55:42;;;;;;;4.47;3.13;;;4.60;99.90;;;;;;4205104;28;20654;-78
2021/04/11 07:57:57;;;;;;;5.40;3.22;;;4.70;99.90;;;;;;4190317;28;20064;-80
2021/04/11 08:00:16;;;;;;;6.47;2.97;;;4.70;99.90;;;;;;4209917;28;20063;-80
2021/04/11 08:02:43;;;;;;;4.60;2.95;;;4.70;99.90;;;;;;4193635;28;20480;-81
2021/04/11 08:05:13;;;;;;;3.38;2.90;;;4.70;99.90;;;;;;4196851;28;20511;-81
2021/04/11 08:07:35;;;;;;;5.15;2.78;;;4.80;99.90;;;;;;4196738;28;20656;-79
2021/04/11 08:09:51;;;;;;;4.90;2.97;;;4.90;99.90;;;;;;4197338;28;20044;-82
2021/04/11 08:12:28;;;;;;;4.68;3.20;;;4.90;99.90;;;;;;4188051;28;20025;-80
2021/04/11 08:15:09;;;;;;;4.57;2.75;;;5.10;99.90;;;;;;4196579;28;20383;-80
2021/04/11 08:17:13;;;;;;;5.07;2.53;;;5.60;99.90;;;;;;4205650;28;20036;-80
2021/04/11 08:19:32;;;;;;;;;;;5.70;99.90;;;;;;4197006;28;20031;-79
2021/04/11 08:21:42;;;;;;;6.63;2.72;;;5.70;99.90;;;;;;4192611;28;19923;-81
2021/04/11 08:24:05;;;;;;;8.50;3.05;;;5.60;99.90;;;;;;4194688;28;20032;-80
2021/04/11 08:27:02;;;;;;;4.68;3.13;;;5.60;99.90;;;;;;4209575;28;20123;-81
2021/04/11 08:29:15;;;;;;;6.75;2.83;;;5.50;99.90;;;;;;4195829;28;20033;-80
2021/04/11 08:31:48;;;;;;;6.20;3.28;;;5.70;99.90;;;;;;4179622;28;20090;-79
2021/04/11 08:34:24;;;;;;;4.57;3.58;;;5.80;99.90;;;;;;4192418;28;20115;-79
2021/04/11 08:37:15;;;;;;;3.47;3.13;;;6.00;99.90;;;;;;4194838;28;20479;-79
2021/04/11 08:39:38;;;;;;;4.30;2.65;;;6.10;99.90;;;;;;4189085;28;20024;-80
2021/04/11 08:42:10;;;;;;;5.22;2.55;;;6.10;99.90;;;;;;4197867;28;20037;-79
2021/04/11 08:45:08;;;;;;;2.70;2.45;;;5.90;99.90;;;;;;4179611;28;20028;-78
2021/04/11 08:47:34;;;;;;;5.05;2.80;;;5.70;99.90;;;;;;4175944;28;20087;-79
2021/04/11 08:49:48;;;;;;;8.07;2.70;;;5.60;99.90;;;;;;4195698;28;20502;-79
2021/04/11 08:52:12;;;;;;;6.32;2.90;;;5.60;99.90;;;;;;4193773;28;20032;-78
2021/04/11 08:54:46;;;;;;;7.55;2.88;;;5.70;99.90;;;;;;4191696;28;20032;-79
2021/04/11 08:57:02;;;;;;;4.50;3.00;;;5.70;99.90;;;;;;4195976;28;20562;-80
2021/04/11 08:59:28;;;;;;;6.68;2.95;;;5.70;99.90;;;;;;4191065;28;20153;-79
2021/04/11 09:01:43;;;;;;;4.30;2.78;;;5.70;99.90;;;;;;4194707;28;20156;-78
2021/04/11 09:04:14;;;;;;;8.65;3.13;;;6.00;99.90;;;;;;4194258;28;20430;-79
2021/04/11 09:06:40;;;;;;;5.47;2.45;;;6.50;99.90;;;;;;4177876;28;20087;-80
2021/04/11 09:09:24;;;;;;;4.22;2.60;;;6.70;99.90;;;;;;4205716;28;20046;-78
2021/04/11 09:11:42;;;;;;;5.05;3.20;;;6.90;99.90;;;;;;4183059;28;20048;-79
2021/04/11 09:14:23;;;;;;;5.35;2.78;;;6.90;99.90;;;;;;4196121;28;20021;-81
2021/04/11 09:16:46;;;;;;;3.30;2.40;;;7.10;99.90;;;;;;4195698;28;20036;-81
2021/04/11 09:19:18;;;;;;;4.47;3.00;;;7.30;99.90;;;;;;4179405;28;20408;-78
2021/04/11 09:21:38;;;;;;;3.20;2.65;;;7.10;99.90;;;;;;4210211;28;20483;-81
2021/04/11 09:24:21;;;;;;;3.72;2.83;;;6.90;99.90;;;;;;4186094;28;20036;-80
2021/04/11 09:26:51;;;;;;;7.22;2.70;;;6.70;99.90;;;;;;4194911;28;20064;-79
2021/04/11 09:29:28;;;;;;;8.60;3.05;;;6.50;99.90;;;;;;4179511;28;20070;-79
2021/04/11 09:31:32;;;;;;;3.13;2.47;;;6.30;99.90;;;;;;4195293;28;20120;-79
2021/04/11 09:33:43;;;;;;;8.48;3.30;;;6.10;99.90;;;;;;4179334;28;20102;-80
2021/04/11 09:36:42;;;;;;;6.40;3.20;;;6.00;99.90;;;;;;4204093;28;20047;-80
2021/04/11 09:39:23;;;;;;;4.43;3.00;;;5.90;99.90;;;;;;4182979;28;20037;-80
2021/04/11 09:41:53;;;;;;;7.05;3.08;;;5.70;99.90;;;;;;4178745;28;20048;-79
2021/04/11 09:44:50;;;;;;;6.75;2.95;;;5.70;99.90;;;;;;4195550;28;20032;-79
2021/04/11 09:47:09;;;;;;;8.18;3.17;;;5.80;99.90;;;;;;4195463;28;20048;-78
2021/04/11 09:49:55;;;;;;;4.88;2.83;;;5.90;99.90;;;;;;4176990;28;20123;-80
2021/04/11 09:52:32;;;;;;;5.10;3.00;;;6.10;99.90;;;;;;4170817;28;20056;-79
2021/04/11 09:55:17;;;;;;;7.63;3.35;;;6.10;99.90;;;;;;4208368;28;20119;-80
2021/04/11 09:57:58;;;;;;;7.50;2.75;;;6.10;99.90;;;;;;4192670;28;20032;-80
2021/04/11 10:00:24;;;;;;;4.00;2.60;;;6.00;99.90;;;;;;4176670;28;20044;-78
2021/04/11 10:03:15;;;;;;;10.10;2.80;;;6.10;99.90;;;;;;4193691;28;20369;-78
2021/04/11 10:05:36;;;;;;;6.57;2.60;;;6.20;99.90;;;;;;4210112;28;20036;-77
2021/04/11 10:08:08;;;;;;;5.60;3.15;;;6.30;99.90;;;;;;4208338;28;20028;-80
2021/04/11 10:10:43;;;;;;;7.03;2.90;;;6.50;99.90;;;;;;4189590;28;20033;-77
2021/04/11 10:13:15;;;;;;;9.68;3.40;;;6.50;99.90;;;;;;4190835;28;20476;-78
2021/04/11 10:15:47;;;;;;;5.40;2.53;;;6.40;99.90;;;;;;4174978;28;20056;-78
2021/04/11 10:18:35;;;;;;;5.43;2.63;;;6.30;99.90;;;;;;4191758;28;20519;-79
2021/04/11 10:20:56;;;;;;;8.13;3.15;;;6.20;99.90;;;;;;4158045;28;20099;-78
2021/04/11 10:23:00;;;;;;;5.20;2.92;;;6.30;99.90;;;;;;4189388;28;20067;-78
2021/04/11 10:25:32;;;;;;;4.22;2.75;;;6.50;99.90;;;;;;4181861;28;20053;-78
2021/04/11 10:27:50;;;;;;;6.78;2.63;;;6.70;99.90;;;;;;4192361;28;20032;-78
2021/04/11 10:29:52;;;;;;;4.00;2.53;;;6.90;99.90;;;;;;4185566;28;20025;-78
2021/04/11 10:32:12;;;;;;;6.32;2.90;;;7.00;99.90;;;;;;4185856;28;20021;-78
2021/04/11 10:34:26;;;;;;;6.35;2.80;;;7.10;99.90;;;;;;4179475;28;20383;-77
2021/04/11 10:36:46;;;;;;;5.80;2.40;;;7.10;99.90;;;;;;4177559;28;20472;-79
2021/04/11 10:39:00;;;;;;;4.32;2.53;;;7.10;99.90;;;;;;4182522;28;20025;-77
2021/04/11 10:41:25;;;;;;;;;;;7.20;99.90;;;;;;4201264;28;20032;-79
2021/04/11 10:43:45;;;;;;;;;;;7.40;99.90;;;;;;4211178;28;19961;-76
2021/04/11 10:46:10;;;;;;;3.55;2.50;;;7.80;99.90;;;;;;4183944;28;19912;-76
2021/04/11 10:48:29;;;;;;;3.67;2.35;;;7.80;99.90;;;;;;4206591;28;20548;-77
2021/04/11 10:50:56;;;;;;;5.78;2.88;;;7.70;99.90;;;;;;4210046;28;20075;-78
2021/04/11 10:53:42;;;;;;;6.47;2.55;;;7.50;99.90;;;;;;4199669;28;20066;-77
2021/04/11 10:56:05;;;;;;;6.13;3.05;;;7.10;99.90;;;;;;4182059;28;20033;-78
2021/04/11 10:58:33;;;;;;;3.90;2.80;;;6.60;99.90;;;;;;4193539;28;20425;-78
2021/04/11 11:00:44;;;;;;;5.25;2.60;;;6.30;99.90;;;;;;4191687;28;20036;-78
2021/04/11 11:03:40;;;;;;;3.58;2.60;;;6.30;99.90;;;;;;4177177;28;20492;-78
2021/04/11 11:06:09;;;;;;;4.75;2.90;;;6.60;99.90;;;;;;4192211;28;20033;-79
2021/04/11 11:08:39;;;;;;;7.40;3.22;;;7.10;99.90;;;;;;4199943;28;20032;-79
2021/04/11 11:10:55;;;;;;;8.40;3.60;;;7.30;99.90;;;;;;4172874;28;20086;-77
2021/04/11 11:13:38;;;;;;;4.22;2.25;;;7.40;99.90;;;;;;4195403;28;20032;-78
2021/04/11 11:16:05;;;;;;;5.68;2.20;;;7.40;99.90;;;;;;4193653;28;20618;-77
2021/04/11 11:18:55;;;;;;;7.07;2.65;;;7.30;99.90;;;;;;4193923;28;20032;-78
2021/04/11 11:21:53;;;;;;;7.68;2.63;;;7.40;99.90;;;;;;4131858;28;20065;-78
2021/04/11 11:24:24;;;;;;;3.58;2.30;;;7.50;99.90;;;;;;4200134;28;20460;-78
2021/04/11 11:26:49;;;;;;;3.35;2.33;;;7.90;99.90;;;;;;4192860;28;20039;-79
2021/04/11 11:29:15;;;;;;;2.42;2.22;;;8.30;99.90;;;;;;4191882;28;20186;-78
2021/04/11 11:31:25;;;;;;;5.30;2.10;;;8.50;99.90;;;;;;4193140;28;20028;-78
2021/04/11 11:33:57;;;;;;;4.03;2.25;;;9.00;99.90;;;;;;4191288;28;20037;-77
2021/04/11 11:36:38;;;;;;;2.95;2.20;;;9.30;99.90;;;;;;4193795;28;20067;-78
2021/04/11 11:39:26;;;;;;;2.75;2.22;;;9.30;99.90;;;;;;4195402;28;20039;-77
2021/04/11 11:41:36;;;;;;;6.72;3.00;;;9.40;99.90;;;;;;4194347;28;20044;-78
2021/04/11 11:44:09;;;;;;;7.90;2.80;;;9.20;99.90;;;;;;4184027;28;20185;-78
2021/04/11 11:46:34;;;;;;;3.55;2.10;;;9.30;99.90;;;;;;4197121;28;20598;-75
2021/04/11 11:48:54;;;;;;;8.52;3.45;;;9.60;99.90;;;;;;4196945;28;20106;-77
2021/04/11 11:51:05;;;;;;;3.25;2.13;;;9.80;99.90;;;;;;4208444;28;20081;-77
2021/04/11 11:53:23;;;;;;;3.00;2.45;;;9.60;99.90;;;;;;4195307;28;20035;-77
2021/04/11 11:55:42;;;;;;;6.00;2.80;;;9.10;99.90;;;;;;4164061;28;20212;-78
2021/04/11 11:57:52;;;;;;;4.45;2.22;;;9.00;99.90;;;;;;4180576;28;20037;-78
2021/04/11 12:00:10;;;;;;;4.40;2.50;;;8.90;99.90;;;;;;4180649;28;20040;-77
2021/04/11 12:02:41;;;;;;;4.18;2.40;;;8.90;99.90;;;;;;4179780;28;20029;-77
2021/04/11 12:04:55;;;;;;;4.95;2.20;;;9.00;99.90;;;;;;4180139;28;20095;-78
2021/04/11 12:07:02;;;;;;;2.60;2.15;;;8.80;99.90;;;;;;4180298;28;20033;-77